createdAt,value
2023-05-06T00:00:43.102Z,8.18
2023-05-06T00:01:43.124Z,8.15
2023-05-06T00:02:43.180Z,8.20
2023-05-06T00:03:43.306Z,8.21
2023-05-06T00:04:43.180Z,8.25
2023-05-06T00:05:43.110Z,8.09
2023-05-06T00:06:43.132Z,8.13
2023-05-06T00:07:43.137Z,8.38
2023-05-06T00:08:43.208Z,8.12
2023-05-06T00:09:43.161Z,7.95
2023-05-06T00:10:43.174Z,8.09
2023-05-06T00:11:43.178Z,8.01
2023-05-06T00:12:43.234Z,8.09
2023-05-06T00:13:43.213Z,8.09
2023-05-06T00:14:43.199Z,7.95
2023-05-06T00:15:43.218Z,7.88
2023-05-06T00:16:43.268Z,7.97
2023-05-06T00:17:43.327Z,8.11
2023-05-06T00:18:43.246Z,8.08
2023-05-06T00:19:43.259Z,8.06
2023-05-06T00:20:43.259Z,8.02
2023-05-06T00:21:43.262Z,7.95
2023-05-06T00:22:43.289Z,8.06
2023-05-06T00:23:43.289Z,7.92
2023-05-06T00:24:43.294Z,7.86
2023-05-06T00:25:43.300Z,7.81
2023-05-06T00:26:43.322Z,8.00
2023-05-06T00:27:43.340Z,8.02
2023-05-06T00:28:43.337Z,8.07
2023-05-06T00:29:43.347Z,8.00
2023-05-06T00:30:43.362Z,8.14
2023-05-06T00:31:43.424Z,7.79
2023-05-06T00:32:43.410Z,7.78
2023-05-06T00:33:43.444Z,7.84
2023-05-06T00:34:43.397Z,7.98
2023-05-06T00:35:43.406Z,7.88
2023-05-06T00:36:43.405Z,7.69
2023-05-06T00:37:43.426Z,8.00
2023-05-06T00:38:43.409Z,7.90
2023-05-06T00:39:43.422Z,8.02
2023-05-06T00:40:43.423Z,7.78
2023-05-06T00:41:43.430Z,7.82
2023-05-06T00:42:43.446Z,7.78
2023-05-06T00:43:43.430Z,7.74
2023-05-06T00:44:43.431Z,7.97
2023-05-06T00:45:43.510Z,7.80
2023-05-06T00:46:43.469Z,7.92
2023-05-06T00:47:43.537Z,7.93
2023-05-06T00:48:43.479Z,7.65
2023-05-06T00:49:43.497Z,7.75
2023-05-06T00:50:43.515Z,7.88
2023-05-06T00:51:43.512Z,7.71
2023-05-06T00:52:43.541Z,7.56
2023-05-06T00:53:43.577Z,7.75
2023-05-06T00:54:43.542Z,7.66
2023-05-06T00:55:43.566Z,7.68
2023-05-06T00:56:43.578Z,7.66
2023-05-06T00:57:43.576Z,7.64
2023-05-06T00:58:43.612Z,7.69
2023-05-06T00:59:43.578Z,7.70
2023-05-06T01:00:43.616Z,7.57
2023-05-06T01:01:43.614Z,7.40
2023-05-06T01:02:47.394Z,7.60
2023-05-06T01:03:43.750Z,7.62
2023-05-06T01:04:43.617Z,7.65
2023-05-06T01:05:43.711Z,7.62
2023-05-06T01:06:43.613Z,7.64
2023-05-06T01:07:43.646Z,7.73
2023-05-06T01:08:43.644Z,7.75
2023-05-06T01:09:43.665Z,7.58
2023-05-06T01:10:43.686Z,7.84
2023-05-06T01:11:43.674Z,7.62
2023-05-06T01:12:43.706Z,7.69
2023-05-06T01:13:43.684Z,7.74
2023-05-06T01:14:43.699Z,7.75
2023-05-06T01:15:43.725Z,7.77
2023-05-06T01:16:43.740Z,7.80
2023-05-06T01:17:43.771Z,7.85
2023-05-06T01:18:43.746Z,7.66
2023-05-06T01:19:43.760Z,7.62
2023-05-06T01:20:43.762Z,7.46
2023-05-06T01:21:43.829Z,7.61
2023-05-06T01:22:43.799Z,7.69
2023-05-06T01:23:43.805Z,7.48
2023-05-06T01:24:43.800Z,7.78
2023-05-06T01:25:43.809Z,7.54
2023-05-06T01:26:43.891Z,7.52
2023-05-06T01:27:43.836Z,7.46
2023-05-06T01:28:43.821Z,7.54
2023-05-06T01:29:43.887Z,7.55
2023-05-06T01:30:43.874Z,7.56
2023-05-06T01:31:43.850Z,7.63
2023-05-06T01:32:43.959Z,7.64
2023-05-06T01:33:43.874Z,7.51
2023-05-06T01:34:43.870Z,7.40
2023-05-06T01:35:43.923Z,7.38
2023-05-06T01:36:43.892Z,7.39
2023-05-06T01:37:43.973Z,7.40
2023-05-06T01:38:43.967Z,7.42
2023-05-06T01:39:43.912Z,7.51
2023-05-06T01:40:43.909Z,7.47
2023-05-06T01:41:43.937Z,7.68
2023-05-06T01:42:43.924Z,7.59
2023-05-06T01:43:43.915Z,7.35
2023-05-06T01:44:43.968Z,7.36
2023-05-06T01:45:43.954Z,7.40
2023-05-06T01:46:44.022Z,7.46
2023-05-06T01:47:44.004Z,7.50
2023-05-06T01:48:44.025Z,7.32
2023-05-06T01:49:43.990Z,7.50
2023-05-06T01:50:44.004Z,7.59
2023-05-06T01:51:44.041Z,7.36
2023-05-06T01:52:44.031Z,7.48
2023-05-06T01:53:44.124Z,7.35
2023-05-06T01:54:44.050Z,7.55
2023-05-06T01:55:44.079Z,7.50
2023-05-06T01:56:44.078Z,7.24
2023-05-06T01:57:44.102Z,7.14
2023-05-06T01:58:44.107Z,7.21
2023-05-06T01:59:44.119Z,7.28
2023-05-06T02:00:44.130Z,7.21
2023-05-06T02:01:44.169Z,7.12
2023-05-06T02:02:44.225Z,7.16
2023-05-06T02:03:44.258Z,7.31
2023-05-06T02:04:44.180Z,7.25
2023-05-06T02:05:44.191Z,6.79
2023-05-06T02:06:44.211Z,6.81
2023-05-06T02:07:44.222Z,6.85
2023-05-06T02:08:44.228Z,6.92
2023-05-06T02:09:44.293Z,6.99
2023-05-06T02:10:44.244Z,7.07
2023-05-06T02:11:44.259Z,6.97
2023-05-06T02:12:44.276Z,6.92
2023-05-06T02:13:44.269Z,7.03
2023-05-06T02:14:44.278Z,6.90
2023-05-06T02:15:44.328Z,6.95
2023-05-06T02:16:44.299Z,6.84
2023-05-06T02:17:44.341Z,7.02
2023-05-06T02:18:44.314Z,6.91
2023-05-06T02:19:44.326Z,6.75
2023-05-06T02:20:44.334Z,6.90
2023-05-06T02:21:44.355Z,6.69
2023-05-06T02:22:44.355Z,6.87
2023-05-06T02:23:44.364Z,6.83
2023-05-06T02:24:44.364Z,6.61
2023-05-06T02:25:44.403Z,6.70
2023-05-06T02:26:44.394Z,6.86
2023-05-06T02:27:44.385Z,6.60
2023-05-06T02:28:44.452Z,6.53
2023-05-06T02:29:44.468Z,6.81
2023-05-06T02:30:44.492Z,6.66
2023-05-06T02:31:44.612Z,6.60
2023-05-06T02:32:44.596Z,6.72
2023-05-06T02:33:44.618Z,6.59
2023-05-06T02:34:44.666Z,6.69
2023-05-06T02:35:44.695Z,6.45
2023-05-06T02:36:44.750Z,6.49
2023-05-06T02:37:44.774Z,6.38
2023-05-06T02:38:44.851Z,6.52
2023-05-06T02:39:44.891Z,6.49
2023-05-06T02:40:44.925Z,6.46
2023-05-06T02:41:45.038Z,6.48
2023-05-06T02:42:45.079Z,6.41
2023-05-06T02:43:45.062Z,6.44
2023-05-06T02:44:45.127Z,6.42
2023-05-06T02:45:45.154Z,6.48
2023-05-06T02:46:45.193Z,6.35
2023-05-06T02:47:45.300Z,6.47
2023-05-06T02:48:45.304Z,6.28
2023-05-06T02:49:45.326Z,6.38
2023-05-06T02:50:45.368Z,6.39
2023-05-06T02:51:45.401Z,6.41
2023-05-06T02:52:45.531Z,6.26
2023-05-06T02:53:45.518Z,6.27
2023-05-06T02:54:45.554Z,6.25
2023-05-06T02:55:45.671Z,6.16
2023-05-06T02:56:45.664Z,6.24
2023-05-06T02:57:45.775Z,6.23
2023-05-06T02:58:45.761Z,6.27
2023-05-06T02:59:45.772Z,6.28
2023-05-06T03:00:45.803Z,6.29
2023-05-06T03:01:45.807Z,6.29
2023-05-06T03:02:45.853Z,6.30
2023-05-06T03:03:45.850Z,6.28
2023-05-06T03:04:45.847Z,6.30
2023-05-06T03:05:45.851Z,6.29
2023-05-06T03:06:45.870Z,6.31
2023-05-06T03:07:45.882Z,6.38
2023-05-06T03:08:45.923Z,6.38
2023-05-06T03:09:45.915Z,6.46
2023-05-06T03:10:45.937Z,6.36
2023-05-06T03:11:45.957Z,6.41
2023-05-06T03:12:45.975Z,6.38
2023-05-06T03:13:46.110Z,6.29
2023-05-06T03:14:45.994Z,6.24
2023-05-06T03:15:46.003Z,6.35
2023-05-06T03:16:46.055Z,6.27
2023-05-06T03:17:46.071Z,6.26
2023-05-06T03:18:46.061Z,6.28
2023-05-06T03:19:46.103Z,6.20
2023-05-06T03:20:46.119Z,6.17
2023-05-06T03:21:46.190Z,6.10
2023-05-06T03:22:46.165Z,6.22
2023-05-06T03:23:46.213Z,5.93
2023-05-06T03:24:46.264Z,6.16
2023-05-06T03:25:46.315Z,6.01
2023-05-06T03:26:46.368Z,5.92
2023-05-06T03:27:46.414Z,5.97
2023-05-06T03:28:46.479Z,6.12
2023-05-06T03:29:46.586Z,6.02
2023-05-06T03:30:46.584Z,6.02
2023-05-06T03:31:46.709Z,6.08
2023-05-06T03:32:46.697Z,6.07
2023-05-06T03:33:46.775Z,6.06
2023-05-06T03:34:46.797Z,6.14
2023-05-06T03:35:46.843Z,6.05
2023-05-06T03:36:46.900Z,6.08
2023-05-06T03:37:46.948Z,5.98
2023-05-06T03:38:47.027Z,6.13
2023-05-06T03:39:47.097Z,6.06
2023-05-06T03:40:47.125Z,5.98
2023-05-06T03:41:47.166Z,5.98
2023-05-06T03:42:47.225Z,5.97
2023-05-06T03:43:47.286Z,6.07
2023-05-06T03:44:47.330Z,5.98
2023-05-06T03:45:47.622Z,6.01
2023-05-06T03:46:47.473Z,5.87
2023-05-06T03:47:48.303Z,5.92
2023-05-06T03:48:47.542Z,5.97
2023-05-06T03:49:47.592Z,5.87
2023-05-06T03:50:47.654Z,5.76
2023-05-06T03:51:47.700Z,5.79
2023-05-06T03:52:47.767Z,5.83
2023-05-06T03:53:47.837Z,5.90
2023-05-06T03:54:47.901Z,5.80
2023-05-06T03:55:47.935Z,5.75
2023-05-06T03:56:47.986Z,5.77
2023-05-06T03:57:48.052Z,5.74
2023-05-06T03:58:48.102Z,5.83
2023-05-06T03:59:48.154Z,5.98
2023-05-06T04:00:48.222Z,5.79
2023-05-06T04:01:48.506Z,5.75
2023-05-06T04:02:48.368Z,5.89
2023-05-06T04:03:48.421Z,5.81
2023-05-06T04:04:48.473Z,5.69
2023-05-06T04:05:48.512Z,5.83
2023-05-06T04:06:48.577Z,5.71
2023-05-06T04:07:48.624Z,5.64
2023-05-06T04:08:48.751Z,5.76
2023-05-06T04:09:48.744Z,5.59
2023-05-06T04:10:48.820Z,5.69
2023-05-06T04:11:48.861Z,5.80
2023-05-06T04:12:48.941Z,5.80
2023-05-06T04:13:48.915Z,5.80
2023-05-06T04:14:48.923Z,5.74
2023-05-06T04:15:48.957Z,5.82
2023-05-06T04:16:48.991Z,5.75
2023-05-06T04:17:49.105Z,5.77
2023-05-06T04:18:49.043Z,5.80
2023-05-06T04:19:49.012Z,5.63
2023-05-06T04:20:49.052Z,5.66
2023-05-06T04:21:49.047Z,5.69
2023-05-06T04:22:49.080Z,5.68
2023-05-06T04:23:49.088Z,5.71
2023-05-06T04:24:49.124Z,5.71
2023-05-06T04:25:49.139Z,5.72
2023-05-06T04:26:49.155Z,5.67
2023-05-06T04:27:49.187Z,5.61
2023-05-06T04:28:49.202Z,5.57
2023-05-06T04:29:49.232Z,5.63
2023-05-06T04:30:49.236Z,5.61
2023-05-06T04:31:49.310Z,5.61
2023-05-06T04:32:49.301Z,5.68
2023-05-06T04:33:49.396Z,5.66
2023-05-06T04:34:49.312Z,5.59
2023-05-06T04:35:49.311Z,5.44
2023-05-06T04:36:49.344Z,5.45
2023-05-06T04:37:49.372Z,5.45
2023-05-06T04:38:49.366Z,5.49
2023-05-06T04:39:49.385Z,5.54
2023-05-06T04:40:49.389Z,5.59
2023-05-06T04:41:49.402Z,5.74
2023-05-06T04:42:49.434Z,5.55
2023-05-06T04:43:49.431Z,5.66
2023-05-06T04:44:49.450Z,5.55
2023-05-06T04:45:49.675Z,5.49
2023-05-06T04:46:49.487Z,5.46
2023-05-06T04:47:49.589Z,5.53
2023-05-06T04:48:49.506Z,5.44
2023-05-06T04:49:49.571Z,5.40
2023-05-06T04:50:49.522Z,5.40
2023-05-06T04:51:49.644Z,5.52
2023-05-06T04:52:49.588Z,5.52
2023-05-06T04:53:49.617Z,5.52
2023-05-06T04:54:49.651Z,5.41
2023-05-06T04:55:49.629Z,5.52
2023-05-06T04:56:49.653Z,5.32
2023-05-06T04:57:49.664Z,5.37
2023-05-06T04:58:49.688Z,5.48
2023-05-06T04:59:49.696Z,5.39
2023-05-06T05:00:49.703Z,5.34
2023-05-06T05:01:49.748Z,5.27
2023-05-06T05:02:49.830Z,5.38
2023-05-06T05:03:49.816Z,5.34
2023-05-06T05:04:49.803Z,5.33
2023-05-06T05:05:49.922Z,5.43
2023-05-06T05:06:49.937Z,5.31
2023-05-06T05:07:50.053Z,5.31
2023-05-06T05:08:49.985Z,5.33
2023-05-06T05:09:49.962Z,5.35
2023-05-06T05:10:49.990Z,5.38
2023-05-06T05:11:49.992Z,5.34
2023-05-06T05:12:50.084Z,5.26
2023-05-06T05:13:50.050Z,5.25
2023-05-06T05:14:50.059Z,5.38
2023-05-06T05:15:50.072Z,5.39
2023-05-06T05:16:50.133Z,5.40
2023-05-06T05:17:50.154Z,5.33
2023-05-06T05:18:50.133Z,5.35
2023-05-06T05:19:50.142Z,5.33
2023-05-06T05:20:50.177Z,5.25
2023-05-06T05:21:50.261Z,5.24
2023-05-06T05:22:50.186Z,5.24
2023-05-06T05:23:50.228Z,5.24
2023-05-06T05:24:50.234Z,5.26
2023-05-06T05:25:50.234Z,5.27
2023-05-06T05:26:50.263Z,5.30
2023-05-06T05:27:50.252Z,5.32
2023-05-06T05:28:50.262Z,5.21
2023-05-06T05:29:50.286Z,5.26
2023-05-06T05:30:50.424Z,5.26
2023-05-06T05:31:50.334Z,5.22
2023-05-06T05:32:50.427Z,5.28
2023-05-06T05:33:50.446Z,5.32
2023-05-06T05:34:50.372Z,5.26
2023-05-06T05:35:50.408Z,5.28
2023-05-06T05:36:50.408Z,5.27
2023-05-06T05:37:50.488Z,5.28
2023-05-06T05:38:50.439Z,5.26
2023-05-06T05:39:50.457Z,5.22
2023-05-06T05:40:50.485Z,5.28
2023-05-06T05:41:50.532Z,5.12
2023-05-06T05:42:50.480Z,5.13
2023-05-06T05:43:50.514Z,5.05
2023-05-06T05:44:50.518Z,5.10
2023-05-06T05:45:50.535Z,5.05
2023-05-06T05:46:50.635Z,5.03
2023-05-06T05:47:50.761Z,5.11
2023-05-06T05:48:50.766Z,5.04
2023-05-06T05:49:50.837Z,5.03
2023-05-06T05:50:50.910Z,5.09
2023-05-06T05:51:50.960Z,4.98
2023-05-06T05:52:51.022Z,4.97
2023-05-06T05:53:51.358Z,4.97
2023-05-06T05:54:51.056Z,4.99
2023-05-06T05:55:51.075Z,5.02
2023-05-06T05:56:51.101Z,5.03
2023-05-06T05:57:51.087Z,5.18
2023-05-06T05:58:51.122Z,5.00
2023-05-06T05:59:51.125Z,4.99
2023-05-06T06:00:51.118Z,5.08
2023-05-06T06:01:51.130Z,5.02
2023-05-06T06:02:51.196Z,4.95
2023-05-06T06:03:51.282Z,5.01
2023-05-06T06:04:51.296Z,4.94
2023-05-06T06:05:51.253Z,4.89
2023-05-06T06:06:51.332Z,4.96
2023-05-06T06:07:51.395Z,4.96
2023-05-06T06:08:51.491Z,4.87
2023-05-06T06:09:51.596Z,4.90
2023-05-06T06:10:51.582Z,4.90
2023-05-06T06:11:51.671Z,4.83
2023-05-06T06:12:51.756Z,4.88
2023-05-06T06:13:51.805Z,4.83
2023-05-06T06:14:51.869Z,4.76
2023-05-06T06:15:51.954Z,4.74
2023-05-06T06:16:51.995Z,4.75
2023-05-06T06:17:52.127Z,4.72
2023-05-06T06:18:52.150Z,4.68
2023-05-06T06:19:52.201Z,4.73
2023-05-06T06:20:53.392Z,4.82
2023-05-06T06:21:52.322Z,4.74
2023-05-06T06:22:52.387Z,4.65
2023-05-06T06:23:52.451Z,4.74
2023-05-06T06:24:52.502Z,4.66
2023-05-06T06:25:52.655Z,4.64
2023-05-06T06:26:52.624Z,4.63
2023-05-06T06:27:52.694Z,4.65
2023-05-06T06:28:52.746Z,4.67
2023-05-06T06:29:52.821Z,4.72
2023-05-06T06:30:52.893Z,4.65
2023-05-06T06:31:52.979Z,4.55
2023-05-06T06:32:53.072Z,4.50
2023-05-06T06:33:53.061Z,4.57
2023-05-06T06:34:53.128Z,4.47
2023-05-06T06:35:53.202Z,4.51
2023-05-06T06:36:53.254Z,4.45
2023-05-06T06:37:53.326Z,4.35
2023-05-06T06:38:53.336Z,4.36
2023-05-06T06:39:53.375Z,4.38
2023-05-06T06:40:53.378Z,4.39
2023-05-06T06:41:53.525Z,4.47
2023-05-06T06:42:53.417Z,4.45
2023-05-06T06:43:53.444Z,4.42
2023-05-06T06:44:53.434Z,4.49
2023-05-06T06:45:53.507Z,4.41
2023-05-06T06:46:53.517Z,4.50
2023-05-06T06:47:53.539Z,4.31
2023-05-06T06:48:53.511Z,4.37
2023-05-06T06:49:53.509Z,4.41
2023-05-06T06:50:53.522Z,4.31
2023-05-06T06:51:53.576Z,4.31
2023-05-06T06:52:53.626Z,4.36
2023-05-06T06:53:53.699Z,4.26
2023-05-06T06:54:53.754Z,4.20
2023-05-06T06:55:53.806Z,4.24
2023-05-06T06:56:53.876Z,4.24
2023-05-06T06:57:54.009Z,4.17
2023-05-06T06:58:54.012Z,4.19
2023-05-06T06:59:54.073Z,4.20
2023-05-06T07:00:54.190Z,4.12
2023-05-06T07:01:54.210Z,4.19
2023-05-06T07:02:54.413Z,4.11
2023-05-06T07:03:54.355Z,4.21
2023-05-06T07:04:54.394Z,4.13
2023-05-06T07:05:54.458Z,4.16
2023-05-06T07:06:54.523Z,4.17
2023-05-06T07:07:54.606Z,4.23
2023-05-06T07:08:54.676Z,4.19
2023-05-06T07:09:54.749Z,4.18
2023-05-06T07:10:54.786Z,4.15
2023-05-06T07:11:54.864Z,4.12
2023-05-06T07:12:54.974Z,4.09
2023-05-06T07:13:55.056Z,4.09
2023-05-06T07:14:55.058Z,4.10
2023-05-06T07:15:55.104Z,4.12
2023-05-06T07:16:55.200Z,4.13
2023-05-06T07:17:55.261Z,4.10
2023-05-06T07:18:55.321Z,4.11
2023-05-06T07:19:55.274Z,4.11
2023-05-06T07:20:55.283Z,4.11
2023-05-06T07:21:55.306Z,4.12
2023-05-06T07:22:55.337Z,4.21
2023-05-06T07:23:55.345Z,4.15
2023-05-06T07:24:55.369Z,4.16
2023-05-06T07:25:55.386Z,4.23
2023-05-06T07:26:55.429Z,4.13
2023-05-06T07:27:55.482Z,4.14
2023-05-06T07:28:55.447Z,4.15
2023-05-06T07:29:55.559Z,4.13
2023-05-06T07:30:55.507Z,4.05
2023-05-06T07:31:55.477Z,4.06
2023-05-06T07:32:55.525Z,4.07
2023-05-06T07:33:55.508Z,4.07
2023-05-06T07:34:55.538Z,4.09
2023-05-06T07:35:55.534Z,4.15
2023-05-06T07:36:55.579Z,4.08
2023-05-06T07:37:55.566Z,4.08
2023-05-06T07:38:55.620Z,4.10
2023-05-06T07:39:55.620Z,4.04
2023-05-06T07:40:55.650Z,4.05
2023-05-06T07:41:55.643Z,4.06
2023-05-06T07:42:55.648Z,4.07
2023-05-06T07:43:55.658Z,4.06
2023-05-06T07:44:55.654Z,4.06
2023-05-06T07:45:55.970Z,4.06
2023-05-06T07:46:55.752Z,4.06
2023-05-06T07:47:55.733Z,4.05
2023-05-06T07:48:55.720Z,3.95
2023-05-06T07:49:55.719Z,3.93
2023-05-06T07:50:55.725Z,4.02
2023-05-06T07:51:55.748Z,3.92
2023-05-06T07:52:55.760Z,3.85
2023-05-06T07:53:55.792Z,3.76
2023-05-06T07:54:55.777Z,3.75
2023-05-06T07:55:55.781Z,3.77
2023-05-06T07:56:55.801Z,3.75
2023-05-06T07:57:55.805Z,3.75
2023-05-06T07:58:55.846Z,3.68
2023-05-06T07:59:55.902Z,3.72
2023-05-06T08:00:55.910Z,3.74
2023-05-06T08:01:56.025Z,3.74
2023-05-06T08:02:56.150Z,3.75
2023-05-06T08:03:56.062Z,3.74
2023-05-06T08:04:56.021Z,3.73
2023-05-06T08:05:56.023Z,3.75
2023-05-06T08:06:56.025Z,3.72
2023-05-06T08:07:56.030Z,3.74
2023-05-06T08:08:56.065Z,3.69
2023-05-06T08:09:56.076Z,3.70
2023-05-06T08:10:56.095Z,3.66
2023-05-06T08:11:56.125Z,3.70
2023-05-06T08:12:56.138Z,3.59
2023-05-06T08:13:56.150Z,3.52
2023-05-06T08:14:56.138Z,3.63
2023-05-06T08:15:56.190Z,3.58
2023-05-06T08:16:56.169Z,3.52
2023-05-06T08:17:57.590Z,3.56
2023-05-06T08:18:56.181Z,3.57
2023-05-06T08:19:56.193Z,3.57
2023-05-06T08:20:56.225Z,3.58
2023-05-06T08:21:56.229Z,3.57
2023-05-06T08:22:56.223Z,3.60
2023-05-06T08:23:56.263Z,3.66
2023-05-06T08:24:56.261Z,3.53
2023-05-06T08:25:56.334Z,3.48
2023-05-06T08:26:56.302Z,3.42
2023-05-06T08:27:56.300Z,3.33
2023-05-06T08:28:56.357Z,3.41
2023-05-06T08:29:56.338Z,3.36
2023-05-06T08:30:56.346Z,3.16
2023-05-06T08:31:56.466Z,2.87
2023-05-06T08:32:56.413Z,2.46
2023-05-06T08:33:56.439Z,2.24
2023-05-06T08:34:56.395Z,2.27
2023-05-06T08:35:56.414Z,2.27
2023-05-06T08:36:56.447Z,2.11
2023-05-06T08:37:56.440Z,1.91
2023-05-06T08:38:56.478Z,1.74
2023-05-06T08:39:58.104Z,1.81
2023-05-06T08:40:56.465Z,1.75
2023-05-06T08:41:56.534Z,1.78
2023-05-06T08:42:56.501Z,1.75
2023-05-06T08:43:56.538Z,1.59
2023-05-06T08:44:56.530Z,1.50
2023-05-06T08:45:56.590Z,1.56
2023-05-06T08:46:56.550Z,1.49
2023-05-06T08:47:56.633Z,1.46
2023-05-06T08:48:56.607Z,1.38
2023-05-06T08:49:56.649Z,1.27
2023-05-06T08:50:56.622Z,1.28
2023-05-06T08:51:56.631Z,1.28
2023-05-06T08:52:56.640Z,1.26
2023-05-06T08:53:56.706Z,1.26
2023-05-06T08:54:56.682Z,1.26
2023-05-06T08:55:56.723Z,1.25
2023-05-06T08:56:56.728Z,1.24
2023-05-06T08:57:56.746Z,1.20
2023-05-06T08:58:56.758Z,1.19
2023-05-06T08:59:56.765Z,1.16
2023-05-06T09:00:56.849Z,1.14
2023-05-06T09:01:56.890Z,1.09
2023-05-06T09:02:56.966Z,1.07
2023-05-06T09:03:56.885Z,1.03
2023-05-06T09:04:56.925Z,1.00
2023-05-06T09:05:57.000Z,0.94
2023-05-06T09:06:56.890Z,0.92
2023-05-06T09:07:56.937Z,0.90
2023-05-06T09:08:56.936Z,0.88
2023-05-06T09:09:56.959Z,0.85
2023-05-06T09:10:56.955Z,0.81
2023-05-06T09:11:56.951Z,0.76
2023-05-06T09:12:57.019Z,0.69
2023-05-06T09:13:57.020Z,0.68
2023-05-06T09:14:56.993Z,0.67
2023-05-06T09:15:57.018Z,0.63
2023-05-06T09:16:57.165Z,0.57
2023-05-06T09:17:57.079Z,0.57
2023-05-06T09:18:57.061Z,0.58
2023-05-06T09:19:57.137Z,0.53
2023-05-06T09:20:59.373Z,0.50
2023-05-06T09:21:57.161Z,0.50
2023-05-06T09:22:57.104Z,0.51
2023-05-06T09:23:57.111Z,0.50
2023-05-06T09:24:57.223Z,0.51
2023-05-06T09:25:57.146Z,0.50
2023-05-06T09:26:57.169Z,0.53
2023-05-06T09:27:57.185Z,0.53
2023-05-06T09:28:57.205Z,0.55
2023-05-06T09:29:57.220Z,0.56
2023-05-06T09:30:57.294Z,0.59
2023-05-06T09:31:57.255Z,0.60
2023-05-06T09:32:57.343Z,0.60
2023-05-06T09:33:57.294Z,0.61
2023-05-06T09:34:57.377Z,0.63
2023-05-06T09:35:57.358Z,0.66
2023-05-06T09:36:57.350Z,0.67
2023-05-06T09:37:57.393Z,0.69
2023-05-06T09:38:57.392Z,0.72
2023-05-06T09:39:57.406Z,0.75
2023-05-06T09:40:57.433Z,0.77
2023-05-06T09:41:57.430Z,0.79
2023-05-06T09:42:57.438Z,0.79
2023-05-06T09:43:57.461Z,0.80
2023-05-06T09:44:59.758Z,0.83
2023-05-06T09:45:57.509Z,0.79
2023-05-06T09:46:57.482Z,0.81
2023-05-06T09:47:57.534Z,0.85
2023-05-06T09:48:57.528Z,0.94
2023-05-06T09:49:57.515Z,1.06
2023-05-06T09:50:59.995Z,1.09
2023-05-06T09:51:57.558Z,1.09
2023-05-06T09:52:57.555Z,1.11
2023-05-06T09:53:57.656Z,1.13
2023-05-06T09:54:57.592Z,1.17
2023-05-06T09:55:57.606Z,1.27
2023-05-06T09:56:59.278Z,1.29
2023-05-06T09:57:57.607Z,1.29
2023-05-06T09:58:57.623Z,1.31
2023-05-06T09:59:57.629Z,1.34
2023-05-06T10:00:57.641Z,1.40
2023-05-06T10:01:57.670Z,1.49
2023-05-06T10:02:58.006Z,1.51
2023-05-06T10:03:57.806Z,1.58
2023-05-06T10:04:58.060Z,1.58
2023-05-06T10:05:57.723Z,1.61
2023-05-06T10:06:57.757Z,1.62
2023-05-06T10:07:57.756Z,1.64
2023-05-06T10:08:57.774Z,1.67
2023-05-06T10:09:57.783Z,1.69
2023-05-06T10:10:57.805Z,1.71
2023-05-06T10:11:57.798Z,1.78
2023-05-06T10:12:57.861Z,1.78
2023-05-06T10:13:57.827Z,1.80
2023-05-06T10:14:57.832Z,1.81
2023-05-06T10:15:57.891Z,1.87
2023-05-06T10:16:57.855Z,1.88
2023-05-06T10:17:57.919Z,1.95
2023-05-06T10:18:57.901Z,1.93
2023-05-06T10:19:57.902Z,1.97
2023-05-06T10:20:57.908Z,1.98
2023-05-06T10:21:57.954Z,2.00
2023-05-06T10:22:57.924Z,1.99
2023-05-06T10:23:57.931Z,2.01
2023-05-06T10:24:57.970Z,2.04
2023-05-06T10:25:57.960Z,2.01
2023-05-06T10:26:57.960Z,2.10
2023-05-06T10:27:57.962Z,2.07
2023-05-06T10:28:57.967Z,2.06
2023-05-06T10:29:57.985Z,2.10
2023-05-06T10:30:58.038Z,2.12
2023-05-06T10:31:58.125Z,2.15
2023-05-06T10:32:58.024Z,2.13
2023-05-06T10:33:58.047Z,2.12
2023-05-06T10:34:58.010Z,2.16
2023-05-06T10:35:58.041Z,2.23
2023-05-06T10:36:58.062Z,2.20
2023-05-06T10:37:58.041Z,2.20
2023-05-06T10:38:58.053Z,2.18
2023-05-06T10:39:58.071Z,2.20
2023-05-06T10:40:58.084Z,2.18
2023-05-06T10:41:58.088Z,2.21
2023-05-06T10:42:58.114Z,2.25
2023-05-06T10:43:58.122Z,2.24
2023-05-06T10:44:58.136Z,2.27
2023-05-06T10:45:58.174Z,2.25
2023-05-06T10:46:58.157Z,2.28
2023-05-06T10:47:58.217Z,2.31
2023-05-06T10:48:58.250Z,2.31
2023-05-06T10:49:58.195Z,2.31
2023-05-06T10:50:58.199Z,2.37
2023-05-06T10:51:58.229Z,2.36
2023-05-06T10:52:58.216Z,2.36
2023-05-06T10:53:58.256Z,2.36
2023-05-06T10:54:58.226Z,2.37
2023-05-06T10:55:58.239Z,2.42
2023-05-06T10:56:58.240Z,2.43
2023-05-06T10:57:58.347Z,2.41
2023-05-06T10:58:58.322Z,2.41
2023-05-06T10:59:58.282Z,2.37
2023-05-06T11:00:58.368Z,2.43
2023-05-06T11:01:58.341Z,2.44
2023-05-06T11:02:58.391Z,2.46
2023-05-06T11:03:58.334Z,2.47
2023-05-06T11:04:58.340Z,2.50
2023-05-06T11:05:58.377Z,2.42
2023-05-06T11:06:58.397Z,2.56
2023-05-06T11:07:58.379Z,2.49
2023-05-06T11:08:58.395Z,2.48
2023-05-06T11:09:58.405Z,2.47
2023-05-06T11:10:58.398Z,2.48
2023-05-06T11:11:58.408Z,2.47
2023-05-06T11:12:58.494Z,2.45
2023-05-06T11:13:58.540Z,2.43
2023-05-06T11:14:58.495Z,2.53
2023-05-06T11:15:58.465Z,2.61
2023-05-06T11:16:58.496Z,2.57
2023-05-06T11:17:58.489Z,2.42
2023-05-06T11:18:58.501Z,2.52
2023-05-06T11:19:58.506Z,2.61
2023-05-06T11:20:58.550Z,2.61
2023-05-06T11:21:58.624Z,2.60
2023-05-06T11:22:58.671Z,2.61
2023-05-06T11:23:58.708Z,2.57
2023-05-06T11:24:58.729Z,2.63
2023-05-06T11:25:58.781Z,2.68
2023-05-06T11:26:58.808Z,2.56
2023-05-06T11:27:58.856Z,2.59
2023-05-06T11:28:58.912Z,2.60
2023-05-06T11:29:59.043Z,2.64
2023-05-06T11:30:59.099Z,2.62
2023-05-06T11:31:59.132Z,2.67
2023-05-06T11:32:59.215Z,2.66
2023-05-06T11:33:59.276Z,2.68
2023-05-06T11:34:59.365Z,2.61
2023-05-06T11:35:59.439Z,2.63
2023-05-06T11:36:59.507Z,2.70
2023-05-06T11:37:59.617Z,2.65
2023-05-06T11:38:59.589Z,2.66
2023-05-06T11:39:59.662Z,2.61
2023-05-06T11:40:59.745Z,2.67
2023-05-06T11:41:59.833Z,2.64
2023-05-06T11:42:59.899Z,2.63
2023-05-06T11:43:59.958Z,2.64
2023-05-06T11:45:00.061Z,2.61
2023-05-06T11:46:00.261Z,2.67
2023-05-06T11:47:00.163Z,2.62
2023-05-06T11:48:00.270Z,2.63
2023-05-06T11:49:00.348Z,2.67
2023-05-06T11:50:00.417Z,2.60
2023-05-06T11:51:00.485Z,2.63
2023-05-06T11:52:00.608Z,2.54
2023-05-06T11:53:00.636Z,2.52
2023-05-06T11:54:00.707Z,2.55
2023-05-06T11:55:00.770Z,2.49
2023-05-06T11:56:00.855Z,2.60
2023-05-06T11:57:00.937Z,2.60
2023-05-06T11:58:01.000Z,2.59
2023-05-06T11:59:01.096Z,2.56
2023-05-06T12:00:01.179Z,2.49
2023-05-06T12:01:01.252Z,2.51
2023-05-06T12:02:01.390Z,2.53
2023-05-06T12:03:01.515Z,2.54
2023-05-06T12:04:01.575Z,2.52
2023-05-06T12:05:01.660Z,2.50
2023-05-06T12:06:01.578Z,2.50
2023-05-06T12:07:01.601Z,2.50
2023-05-06T12:08:01.627Z,2.50
2023-05-06T12:09:01.642Z,2.50
2023-05-06T12:10:01.655Z,2.52
2023-05-06T12:11:01.674Z,2.51
2023-05-06T12:12:01.677Z,2.43
2023-05-06T12:13:01.718Z,2.49
2023-05-06T12:14:01.694Z,2.40
2023-05-06T12:15:01.706Z,2.45
2023-05-06T12:16:01.777Z,2.23
2023-05-06T12:17:01.845Z,2.26
2023-05-06T12:18:01.979Z,2.28
2023-05-06T12:19:01.961Z,2.19
2023-05-06T12:20:02.007Z,2.07
2023-05-06T12:21:02.091Z,2.06
2023-05-06T12:22:02.165Z,1.96
2023-05-06T12:23:02.236Z,1.96
2023-05-06T12:24:02.299Z,1.89
2023-05-06T12:25:02.357Z,1.90
2023-05-06T12:26:02.438Z,1.88
2023-05-06T12:27:02.492Z,1.81
2023-05-06T12:28:02.548Z,1.79
2023-05-06T12:29:02.633Z,1.77
2023-05-06T12:30:02.719Z,1.71
2023-05-06T12:31:02.762Z,1.59
2023-05-06T12:32:02.924Z,1.60
2023-05-06T12:33:02.937Z,1.55
2023-05-06T12:34:03.032Z,1.56
2023-05-06T12:35:03.034Z,1.51
2023-05-06T12:36:03.105Z,1.50
2023-05-06T12:37:03.180Z,1.48
2023-05-06T12:38:03.233Z,1.46
2023-05-06T12:39:03.303Z,1.44
2023-05-06T12:40:03.379Z,1.44
2023-05-06T12:41:03.429Z,1.43
2023-05-06T12:42:03.509Z,1.39
2023-05-06T12:43:03.558Z,1.34
2023-05-06T12:44:03.614Z,1.35
2023-05-06T12:45:03.677Z,1.32
2023-05-06T12:46:03.844Z,1.27
2023-05-06T12:47:03.786Z,1.21
2023-05-06T12:48:03.893Z,1.13
2023-05-06T12:49:03.928Z,1.15
2023-05-06T12:50:03.992Z,1.15
2023-05-06T12:51:04.059Z,1.09
2023-05-06T12:52:04.111Z,1.05
2023-05-06T12:53:04.171Z,0.96
2023-05-06T12:54:04.240Z,0.92
2023-05-06T12:55:04.302Z,0.91
2023-05-06T12:56:04.411Z,0.87
2023-05-06T12:57:04.412Z,0.88
2023-05-06T12:58:04.483Z,0.89
2023-05-06T12:59:04.541Z,0.87
2023-05-06T13:00:04.600Z,0.90
2023-05-06T13:01:04.727Z,0.92
2023-05-06T13:02:04.731Z,0.92
2023-05-06T13:03:04.858Z,0.81
2023-05-06T13:04:04.831Z,0.85
2023-05-06T13:05:04.883Z,0.85
2023-05-06T13:06:05.000Z,0.86
2023-05-06T13:07:05.008Z,0.86
2023-05-06T13:08:05.062Z,0.85
2023-05-06T13:09:05.117Z,0.85
2023-05-06T13:10:05.165Z,0.84
2023-05-06T13:11:05.246Z,0.83
2023-05-06T13:12:05.277Z,0.82
2023-05-06T13:13:05.366Z,0.69
2023-05-06T13:14:05.370Z,0.62
2023-05-06T13:15:05.439Z,0.59
2023-05-06T13:16:05.473Z,0.58
2023-05-06T13:17:05.656Z,0.55
2023-05-06T13:18:05.593Z,0.50
2023-05-06T13:19:05.610Z,0.50